sensor_id;sensor_type;location;lat;lon;timestamp;P1;durP1;ratioP1;P2;durP2;ratioP2
73315;SDS011;61545;53.726;-0.444;2023-06-14T00:03:32;6.8;;;3.1;;
73315;SDS011;61545;53.726;-0.444;2023-06-14T00:08:32;9.8;;;3.4;;
73315;SDS011;61545;53.726;-0.444;2023-06-14T00:13:32;9.7;;;3.2;;
73315;SDS011;61545;53.726;-0.444;2023-06-14T00:18:32;6.3;;;3;;
73315;SDS011;61545;53.726;-0.444;2023-06-14T00:23:32;9.0;;;3.4;;
73315;SDS011;61545;53.726;-0.444;2023-06-14T00:28:32;8.5;;;3.2;;
73315;SDS011;61545;53.726;-0.444;2023-06-14T00:33:32;8.5;;;3.2;;
73315;SDS011;61545;53.726;-0.444;2023-06-14T00:38:32;11.2;;;3.4;;
73315;SDS011;61545;53.726;-0.444;2023-06-14T00:43:32;8.3;;;3.2;;
73315;SDS011;61545;53.726;-0.444;2023-06-14T00:48:32;6.0;;;2.4;;
73315;SDS011;61545;53.726;-0.444;2023-06-14T00:53:32;7.3;;;2.6;;
73315;SDS011;61545;53.726;-0.444;2023-06-14T00:58:32;7.7;;;2.8;;
73315;SDS011;61545;53.726;-0.444;2023-06-14T01:03:32;7.7;;;2.8;;
73315;SDS011;61545;53.726;-0.444;2023-06-14T01:08:37;6.9;;;2.6;;
73315;SDS011;61545;53.726;-0.444;2023-06-14T01:13:33;7.9;;;2.9;;
73315;SDS011;61545;53.726;-0.444;2023-06-14T01:18:32;6.7;;;2.4;;
73315;SDS011;61545;53.726;-0.444;2023-06-14T01:23:32;14.1;;;3;;
73315;SDS011;61545;53.726;-0.444;2023-06-14T01:28:32;6.8;;;2.8;;
73315;SDS011;61545;53.726;-0.444;2023-06-14T01:33:32;6.8;;;2.8;;
73315;SDS011;61545;53.726;-0.444;2023-06-14T01:38:32;12.0;;;3;;
73315;SDS011;61545;53.726;-0.444;2023-06-14T01:43:32;9.4;;;3.5;;
73315;SDS011;61545;53.726;-0.444;2023-06-14T01:48:32;6.8;;;2.9;;
73315;SDS011;61545;53.726;-0.444;2023-06-14T01:53:32;5.7;;;2.2;;
73315;SDS011;61545;53.726;-0.444;2023-06-14T01:58:32;7.5;;;2.3;;
73315;SDS011;61545;53.726;-0.444;2023-06-14T02:03:32;7.5;;;2.3;;
73315;SDS011;61545;53.726;-0.444;2023-06-14T02:08:32;5.8;;;2.1;;
73315;SDS011;61545;53.726;-0.444;2023-06-14T02:13:32;5.7;;;2.4;;
73315;SDS011;61545;53.726;-0.444;2023-06-14T02:18:32;7.3;;;2.3;;
73315;SDS011;61545;53.726;-0.444;2023-06-14T02:23:32;5.4;;;2.2;;
73315;SDS011;61545;53.726;-0.444;2023-06-14T02:28:32;6.9;;;2.1;;
73315;SDS011;61545;53.726;-0.444;2023-06-14T02:33:32;6.9;;;2.1;;
73315;SDS011;61545;53.726;-0.444;2023-06-14T02:38:32;6.3;;;2;;
73315;SDS011;61545;53.726;-0.444;2023-06-14T02:43:32;5.4;;;2.2;;
73315;SDS011;61545;53.726;-0.444;2023-06-14T02:48:32;5.9;;;1.9;;
73315;SDS011;61545;53.726;-0.444;2023-06-14T02:53:32;5.2;;;2.1;;
73315;SDS011;61545;53.726;-0.444;2023-06-14T02:58:32;5.6;;;2;;
73315;SDS011;61545;53.726;-0.444;2023-06-14T03:03:32;5.6;;;2;;
73315;SDS011;61545;53.726;-0.444;2023-06-14T03:08:32;3.5;;;1.8;;
73315;SDS011;61545;53.726;-0.444;2023-06-14T03:13:32;4.6;;;2.1;;
73315;SDS011;61545;53.726;-0.444;2023-06-14T03:18:32;3.8;;;1.7;;
73315;SDS011;61545;53.726;-0.444;2023-06-14T03:23:32;5.1;;;1.8;;
73315;SDS011;61545;53.726;-0.444;2023-06-14T03:28:32;4.8;;;2;;
73315;SDS011;61545;53.726;-0.444;2023-06-14T03:33:32;4.8;;;2;;
73315;SDS011;61545;53.726;-0.444;2023-06-14T03:38:32;7.7;;;2.5;;
73315;SDS011;61545;53.726;-0.444;2023-06-14T03:43:32;6.6;;;2.3;;
73315;SDS011;61545;53.726;-0.444;2023-06-14T03:48:32;4.7;;;2.2;;
73315;SDS011;61545;53.726;-0.444;2023-06-14T03:53:32;6.8;;;2.4;;
73315;SDS011;61545;53.726;-0.444;2023-06-14T03:58:32;5.5;;;2.2;;
73315;SDS011;61545;53.726;-0.444;2023-06-14T04:03:32;5.5;;;2.2;;
73315;SDS011;61545;53.726;-0.444;2023-06-14T04:08:32;8.0;;;2.4;;
73315;SDS011;61545;53.726;-0.444;2023-06-14T04:13:32;7.3;;;2.3;;
73315;SDS011;61545;53.726;-0.444;2023-06-14T04:18:32;6.0;;;2.3;;
73315;SDS011;61545;53.726;-0.444;2023-06-14T04:23:32;5.8;;;2.1;;
73315;SDS011;61545;53.726;-0.444;2023-06-14T04:28:32;8.1;;;2.6;;
73315;SDS011;61545;53.726;-0.444;2023-06-14T04:33:32;8.1;;;2.6;;
73315;SDS011;61545;53.726;-0.444;2023-06-14T04:38:32;10.6;;;3.4;;
73315;SDS011;61545;53.726;-0.444;2023-06-14T04:43:32;9.5;;;2.6;;
73315;SDS011;61545;53.726;-0.444;2023-06-14T04:48:32;7.4;;;2.4;;
73315;SDS011;61545;53.726;-0.444;2023-06-14T04:53:32;6.9;;;2.1;;
73315;SDS011;61545;53.726;-0.444;2023-06-14T04:58:32;8.8;;;2.9;;
73315;SDS011;61545;53.726;-0.444;2023-06-14T05:03:32;8.8;;;2.9;;
73315;SDS011;61545;53.726;-0.444;2023-06-14T05:08:32;10.9;;;2.8;;
73315;SDS011;61545;53.726;-0.444;2023-06-14T05:13:32;8.0;;;2.6;;
73315;SDS011;61545;53.726;-0.444;2023-06-14T05:18:32;10.7;;;2.6;;
73315;SDS011;61545;53.726;-0.444;2023-06-14T05:23:32;6.7;;;2.1;;
73315;SDS011;61545;53.726;-0.444;2023-06-14T05:28:32;7.9;;;2.1;;
73315;SDS011;61545;53.726;-0.444;2023-06-14T05:33:32;7.9;;;2.1;;
73315;SDS011;61545;53.726;-0.444;2023-06-14T05:38:32;7.1;;;2.6;;
73315;SDS011;61545;53.726;-0.444;2023-06-14T05:43:32;11.0;;;2.8;;
73315;SDS011;61545;53.726;-0.444;2023-06-14T05:48:32;10.7;;;2.3;;
73315;SDS011;61545;53.726;-0.444;2023-06-14T05:53:32;11.3;;;2.9;;
73315;SDS011;61545;53.726;-0.444;2023-06-14T05:58:32;10.2;;;2.6;;
73315;SDS011;61545;53.726;-0.444;2023-06-14T06:03:32;10.2;;;2.6;;
73315;SDS011;61545;53.726;-0.444;2023-06-14T06:08:32;7.7;;;2.4;;
73315;SDS011;61545;53.726;-0.444;2023-06-14T06:13:34;9.3;;;2.6;;
73315;SDS011;61545;53.726;-0.444;2023-06-14T06:18:32;6.7;;;2.3;;
73315;SDS011;61545;53.726;-0.444;2023-06-14T06:23:32;10.6;;;2.5;;
73315;SDS011;61545;53.726;-0.444;2023-06-14T06:28:32;8.1;;;2.1;;
73315;SDS011;61545;53.726;-0.444;2023-06-14T06:33:32;8.1;;;2.1;;
73315;SDS011;61545;53.726;-0.444;2023-06-14T06:38:32;6.2;;;2.3;;
73315;SDS011;61545;53.726;-0.444;2023-06-14T06:43:32;7.4;;;2.5;;
73315;SDS011;61545;53.726;-0.444;2023-06-14T06:48:32;7.8;;;2.4;;
73315;SDS011;61545;53.726;-0.444;2023-06-14T06:53:32;6.4;;;2.3;;
73315;SDS011;61545;53.726;-0.444;2023-06-14T06:58:32;6.7;;;2.2;;
73315;SDS011;61545;53.726;-0.444;2023-06-14T07:03:32;6.7;;;2.2;;
73315;SDS011;61545;53.726;-0.444;2023-06-14T07:08:32;13.3;;;2.4;;
73315;SDS011;61545;53.726;-0.444;2023-06-14T07:13:32;6.6;;;2.1;;
73315;SDS011;61545;53.726;-0.444;2023-06-14T07:18:32;9.1;;;2.4;;
73315;SDS011;61545;53.726;-0.444;2023-06-14T07:23:32;8.1;;;2.3;;
73315;SDS011;61545;53.726;-0.444;2023-06-14T07:28:32;11.0;;;2.6;;
73315;SDS011;61545;53.726;-0.444;2023-06-14T07:33:32;11.0;;;2.6;;
73315;SDS011;61545;53.726;-0.444;2023-06-14T07:38:32;10.3;;;2.3;;
73315;SDS011;61545;53.726;-0.444;2023-06-14T07:43:32;8.2;;;2.1;;
73315;SDS011;61545;53.726;-0.444;2023-06-14T07:48:32;8.2;;;2.6;;
73315;SDS011;61545;53.726;-0.444;2023-06-14T07:53:32;8.1;;;2.2;;
73315;SDS011;61545;53.726;-0.444;2023-06-14T07:58:32;10.1;;;2.4;;
73315;SDS011;61545;53.726;-0.444;2023-06-14T08:03:32;10.1;;;2.4;;
73315;SDS011;61545;53.726;-0.444;2023-06-14T08:08:32;6.0;;;2.5;;
73315;SDS011;61545;53.726;-0.444;2023-06-14T08:13:32;9.9;;;2;;
73315;SDS011;61545;53.726;-0.444;2023-06-14T08:18:32;8.8;;;2.4;;
73315;SDS011;61545;53.726;-0.444;2023-06-14T08:23:32;6.0;;;2.1;;
73315;SDS011;61545;53.726;-0.444;2023-06-14T08:28:32;9.0;;;2.4;;
73315;SDS011;61545;53.726;-0.444;2023-06-14T08:33:32;9.0;;;2.4;;
73315;SDS011;61545;53.726;-0.444;2023-06-14T08:38:32;4.8;;;2.1;;
73315;SDS011;61545;53.726;-0.444;2023-06-14T08:48:32;7.8;;;2.3;;
73315;SDS011;61545;53.726;-0.444;2023-06-14T08:53:32;8.2;;;2.1;;
73315;SDS011;61545;53.726;-0.444;2023-06-14T08:58:32;9.2;;;2.4;;
73315;SDS011;61545;53.726;-0.444;2023-06-14T09:03:32;9.2;;;2.4;;
73315;SDS011;61545;53.726;-0.444;2023-06-14T09:08:32;6.2;;;2;;
73315;SDS011;61545;53.726;-0.444;2023-06-14T09:13:32;5.6;;;2.3;;
73315;SDS011;61545;53.726;-0.444;2023-06-14T09:18:34;10.4;;;2.6;;
73315;SDS011;61545;53.726;-0.444;2023-06-14T09:23:33;7.5;;;2.2;;
73315;SDS011;61545;53.726;-0.444;2023-06-14T09:28:32;11.4;;;2.8;;
73315;SDS011;61545;53.726;-0.444;2023-06-14T09:33:32;11.4;;;2.8;;
73315;SDS011;61545;53.726;-0.444;2023-06-14T09:38:34;7.2;;;2.1;;
73315;SDS011;61545;53.726;-0.444;2023-06-14T09:43:32;9.0;;;2;;
73315;SDS011;61545;53.726;-0.444;2023-06-14T09:48:32;5.6;;;2.1;;
73315;SDS011;61545;53.726;-0.444;2023-06-14T09:53:33;6.7;;;2.3;;
73315;SDS011;61545;53.726;-0.444;2023-06-14T09:58:32;5.1;;;2;;
73315;SDS011;61545;53.726;-0.444;2023-06-14T10:03:32;5.1;;;2;;
73315;SDS011;61545;53.726;-0.444;2023-06-14T10:08:32;8.0;;;1.9;;
73315;SDS011;61545;53.726;-0.444;2023-06-14T10:13:32;7.7;;;2.1;;
73315;SDS011;61545;53.726;-0.444;2023-06-14T10:18:35;16.6;;;2.1;;
73315;SDS011;61545;53.726;-0.444;2023-06-14T10:23:32;9.6;;;2.3;;
73315;SDS011;61545;53.726;-0.444;2023-06-14T10:28:32;11.2;;;2.6;;
73315;SDS011;61545;53.726;-0.444;2023-06-14T10:33:32;11.2;;;2.6;;
73315;SDS011;61545;53.726;-0.444;2023-06-14T10:38:32;6.0;;;1.8;;
73315;SDS011;61545;53.726;-0.444;2023-06-14T10:43:32;4.9;;;1.9;;
73315;SDS011;61545;53.726;-0.444;2023-06-14T10:48:32;9.2;;;1.7;;
73315;SDS011;61545;53.726;-0.444;2023-06-14T10:53:39;7.1;;;1.7;;
73315;SDS011;61545;53.726;-0.444;2023-06-14T10:58:32;6.5;;;1.7;;
73315;SDS011;61545;53.726;-0.444;2023-06-14T11:03:43;6.5;;;1.7;;
73315;SDS011;61545;53.726;-0.444;2023-06-14T11:08:40;7.2;;;1.9;;
73315;SDS011;61545;53.726;-0.444;2023-06-14T11:13:32;5.2;;;1.4;;
73315;SDS011;61545;53.726;-0.444;2023-06-14T11:18:32;3.9;;;1.6;;
73315;SDS011;61545;53.726;-0.444;2023-06-14T11:23:32;7.7;;;2.1;;
73315;SDS011;61545;53.726;-0.444;2023-06-14T11:28:36;4.8;;;1.9;;
73315;SDS011;61545;53.726;-0.444;2023-06-14T11:33:32;4.8;;;1.9;;
73315;SDS011;61545;53.726;-0.444;2023-06-14T11:38:35;8.9;;;2.2;;
73315;SDS011;61545;53.726;-0.444;2023-06-14T11:43:32;6.2;;;1.7;;
73315;SDS011;61545;53.726;-0.444;2023-06-14T11:48:36;4.7;;;1.8;;
73315;SDS011;61545;53.726;-0.444;2023-06-14T11:53:32;3.0;;;1.3;;
73315;SDS011;61545;53.726;-0.444;2023-06-14T11:58:32;3.0;;;1.3;;
73315;SDS011;61545;53.726;-0.444;2023-06-14T12:03:32;4.4;;;1.3;;
73315;SDS011;61545;53.726;-0.444;2023-06-14T12:08:33;5.5;;;1.7;;
73315;SDS011;61545;53.726;-0.444;2023-06-14T12:13:32;4.5;;;1.5;;
73315;SDS011;61545;53.726;-0.444;2023-06-14T12:18:33;6.9;;;1.7;;
73315;SDS011;61545;53.726;-0.444;2023-06-14T12:23:42;4.8;;;1.8;;
73315;SDS011;61545;53.726;-0.444;2023-06-14T12:28:32;4.8;;;1.8;;
73315;SDS011;61545;53.726;-0.444;2023-06-14T12:33:32;5.0;;;1.4;;
73315;SDS011;61545;53.726;-0.444;2023-06-14T12:38:32;5.7;;;1.6;;
73315;SDS011;61545;53.726;-0.444;2023-06-14T12:43:32;4.3;;;1.2;;
73315;SDS011;61545;53.726;-0.444;2023-06-14T12:48:32;8.4;;;1.9;;
73315;SDS011;61545;53.726;-0.444;2023-06-14T12:53:32;5.5;;;1.7;;
73315;SDS011;61545;53.726;-0.444;2023-06-14T12:58:32;5.5;;;1.7;;
73315;SDS011;61545;53.726;-0.444;2023-06-14T13:03:32;10.9;;;5.1;;
73315;SDS011;61545;53.726;-0.444;2023-06-14T13:08:32;3.4;;;1.7;;
73315;SDS011;61545;53.726;-0.444;2023-06-14T13:13:32;3.6;;;1.4;;
73315;SDS011;61545;53.726;-0.444;2023-06-14T13:18:32;4.1;;;1.1;;
73315;SDS011;61545;53.726;-0.444;2023-06-14T13:23:32;6.1;;;1.4;;
73315;SDS011;61545;53.726;-0.444;2023-06-14T13:28:32;6.1;;;1.4;;
73315;SDS011;61545;53.726;-0.444;2023-06-14T13:33:32;5.7;;;1.3;;
73315;SDS011;61545;53.726;-0.444;2023-06-14T13:38:32;5.9;;;1.4;;
73315;SDS011;61545;53.726;-0.444;2023-06-14T13:43:32;7.0;;;1.9;;
73315;SDS011;61545;53.726;-0.444;2023-06-14T13:48:32;5.4;;;1.5;;
73315;SDS011;61545;53.726;-0.444;2023-06-14T13:53:32;7.6;;;2.1;;
73315;SDS011;61545;53.726;-0.444;2023-06-14T13:58:32;7.6;;;2.1;;
73315;SDS011;61545;53.726;-0.444;2023-06-14T14:03:32;7.7;;;1.7;;
73315;SDS011;61545;53.726;-0.444;2023-06-14T14:08:32;6.0;;;1.6;;
73315;SDS011;61545;53.726;-0.444;2023-06-14T14:13:32;4.3;;;1.8;;
73315;SDS011;61545;53.726;-0.444;2023-06-14T14:18:32;5.6;;;1.7;;
73315;SDS011;61545;53.726;-0.444;2023-06-14T14:23:32;11.9;;;1.9;;
73315;SDS011;61545;53.726;-0.444;2023-06-14T14:28:32;11.9;;;1.9;;
73315;SDS011;61545;53.726;-0.444;2023-06-14T14:33:32;8.9;;;1.6;;
73315;SDS011;61545;53.726;-0.444;2023-06-14T14:38:32;5.9;;;1.7;;
73315;SDS011;61545;53.726;-0.444;2023-06-14T14:43:32;6.2;;;1.8;;
73315;SDS011;61545;53.726;-0.444;2023-06-14T14:48:32;5.6;;;2.1;;
73315;SDS011;61545;53.726;-0.444;2023-06-14T14:53:32;5.5;;;2;;
73315;SDS011;61545;53.726;-0.444;2023-06-14T14:58:32;5.5;;;2;;
73315;SDS011;61545;53.726;-0.444;2023-06-14T15:03:32;5.0;;;2.2;;
73315;SDS011;61545;53.726;-0.444;2023-06-14T15:08:32;6.1;;;2.3;;
73315;SDS011;61545;53.726;-0.444;2023-06-14T15:13:32;5.5;;;2.3;;
73315;SDS011;61545;53.726;-0.444;2023-06-14T15:18:32;5.1;;;1.9;;
73315;SDS011;61545;53.726;-0.444;2023-06-14T15:23:32;6.6;;;2.2;;
73315;SDS011;61545;53.726;-0.444;2023-06-14T15:28:32;6.6;;;2.2;;
73315;SDS011;61545;53.726;-0.444;2023-06-14T15:33:33;6.8;;;2.4;;
73315;SDS011;61545;53.726;-0.444;2023-06-14T15:38:32;7.6;;;2.6;;
73315;SDS011;61545;53.726;-0.444;2023-06-14T15:43:32;6.4;;;2.1;;
73315;SDS011;61545;53.726;-0.444;2023-06-14T15:48:32;5.1;;;2.1;;
73315;SDS011;61545;53.726;-0.444;2023-06-14T15:53:32;6.6;;;2.3;;
73315;SDS011;61545;53.726;-0.444;2023-06-14T15:58:32;6.6;;;2.3;;
73315;SDS011;61545;53.726;-0.444;2023-06-14T16:03:32;7.5;;;2.4;;
73315;SDS011;61545;53.726;-0.444;2023-06-14T16:08:32;7.9;;;2.4;;
73315;SDS011;61545;53.726;-0.444;2023-06-14T16:13:32;8.8;;;2.2;;
73315;SDS011;61545;53.726;-0.444;2023-06-14T16:18:32;6.9;;;2.3;;
73315;SDS011;61545;53.726;-0.444;2023-06-14T16:23:32;7.5;;;2.3;;
73315;SDS011;61545;53.726;-0.444;2023-06-14T16:28:32;7.5;;;2.3;;
73315;SDS011;61545;53.726;-0.444;2023-06-14T16:33:32;5.2;;;2.1;;
73315;SDS011;61545;53.726;-0.444;2023-06-14T16:38:32;4.7;;;1.8;;
73315;SDS011;61545;53.726;-0.444;2023-06-14T16:43:32;16.9;;;8.3;;
73315;SDS011;61545;53.726;-0.444;2023-06-14T16:48:32;33.8;;;20;;
73315;SDS011;61545;53.726;-0.444;2023-06-14T16:53:32;14.0;;;7.4;;
73315;SDS011;61545;53.726;-0.444;2023-06-14T16:58:32;14.0;;;7.4;;
73315;SDS011;61545;53.726;-0.444;2023-06-14T17:03:32;9.4;;;5.5;;
73315;SDS011;61545;53.726;-0.444;2023-06-14T17:08:32;6.1;;;2.7;;
73315;SDS011;61545;53.726;-0.444;2023-06-14T17:13:32;7.6;;;2.3;;
73315;SDS011;61545;53.726;-0.444;2023-06-14T17:18:33;5.5;;;1.9;;
73315;SDS011;61545;53.726;-0.444;2023-06-14T17:23:32;6.2;;;2.4;;
73315;SDS011;61545;53.726;-0.444;2023-06-14T17:28:33;6.2;;;2.4;;
73315;SDS011;61545;53.726;-0.444;2023-06-14T17:33:32;5.0;;;2;;
73315;SDS011;61545;53.726;-0.444;2023-06-14T17:38:32;6.0;;;2.2;;
73315;SDS011;61545;53.726;-0.444;2023-06-14T17:43:32;7.4;;;2.4;;
73315;SDS011;61545;53.726;-0.444;2023-06-14T17:48:32;4.1;;;2;;
73315;SDS011;61545;53.726;-0.444;2023-06-14T17:53:32;5.8;;;2;;
73315;SDS011;61545;53.726;-0.444;2023-06-14T17:58:32;5.8;;;2;;
73315;SDS011;61545;53.726;-0.444;2023-06-14T18:03:32;6.9;;;2.6;;
73315;SDS011;61545;53.726;-0.444;2023-06-14T18:08:32;8.6;;;2.4;;
73315;SDS011;61545;53.726;-0.444;2023-06-14T18:13:32;6.0;;;2;;
73315;SDS011;61545;53.726;-0.444;2023-06-14T18:18:32;4.7;;;2.2;;
73315;SDS011;61545;53.726;-0.444;2023-06-14T18:23:32;7.6;;;2.1;;
73315;SDS011;61545;53.726;-0.444;2023-06-14T18:28:32;7.6;;;2.1;;
73315;SDS011;61545;53.726;-0.444;2023-06-14T18:33:32;11.8;;;2.5;;
73315;SDS011;61545;53.726;-0.444;2023-06-14T18:38:32;5.5;;;2.5;;
73315;SDS011;61545;53.726;-0.444;2023-06-14T18:43:32;9.2;;;2.5;;
73315;SDS011;61545;53.726;-0.444;2023-06-14T18:48:32;5.0;;;2.4;;
73315;SDS011;61545;53.726;-0.444;2023-06-14T18:53:32;7.3;;;2.3;;
73315;SDS011;61545;53.726;-0.444;2023-06-14T18:58:32;7.3;;;2.3;;
73315;SDS011;61545;53.726;-0.444;2023-06-14T19:03:32;8.3;;;2.3;;
73315;SDS011;61545;53.726;-0.444;2023-06-14T19:08:32;9.8;;;2.7;;
73315;SDS011;61545;53.726;-0.444;2023-06-14T19:13:32;8.2;;;2.4;;
73315;SDS011;61545;53.726;-0.444;2023-06-14T19:18:32;5.4;;;2.4;;
73315;SDS011;61545;53.726;-0.444;2023-06-14T19:23:32;8.8;;;2.6;;
73315;SDS011;61545;53.726;-0.444;2023-06-14T19:28:33;8.8;;;2.6;;
73315;SDS011;61545;53.726;-0.444;2023-06-14T19:33:32;6.1;;;2.8;;
73315;SDS011;61545;53.726;-0.444;2023-06-14T19:38:33;5.6;;;2.3;;
73315;SDS011;61545;53.726;-0.444;2023-06-14T19:43:32;7.7;;;2.4;;
73315;SDS011;61545;53.726;-0.444;2023-06-14T19:48:32;7.9;;;2.3;;
73315;SDS011;61545;53.726;-0.444;2023-06-14T19:53:32;4.2;;;2.2;;
73315;SDS011;61545;53.726;-0.444;2023-06-14T19:58:32;4.2;;;2.2;;
73315;SDS011;61545;53.726;-0.444;2023-06-14T20:03:32;6.5;;;2.5;;
73315;SDS011;61545;53.726;-0.444;2023-06-14T20:08:32;7.1;;;2.2;;
73315;SDS011;61545;53.726;-0.444;2023-06-14T20:13:32;8.9;;;2.2;;
73315;SDS011;61545;53.726;-0.444;2023-06-14T20:18:32;7.6;;;2.5;;
73315;SDS011;61545;53.726;-0.444;2023-06-14T20:23:32;5.0;;;2.4;;
73315;SDS011;61545;53.726;-0.444;2023-06-14T20:28:32;5.0;;;2.4;;
73315;SDS011;61545;53.726;-0.444;2023-06-14T20:33:32;8.2;;;2.5;;
73315;SDS011;61545;53.726;-0.444;2023-06-14T20:38:32;9.0;;;2.7;;
73315;SDS011;61545;53.726;-0.444;2023-06-14T20:43:32;6.7;;;2.6;;
73315;SDS011;61545;53.726;-0.444;2023-06-14T20:48:32;8.3;;;2.8;;
73315;SDS011;61545;53.726;-0.444;2023-06-14T20:53:32;8.9;;;2.9;;
73315;SDS011;61545;53.726;-0.444;2023-06-14T20:58:32;8.9;;;2.9;;
73315;SDS011;61545;53.726;-0.444;2023-06-14T21:03:32;6.5;;;2.4;;
73315;SDS011;61545;53.726;-0.444;2023-06-14T21:08:32;9.4;;;3.1;;
73315;SDS011;61545;53.726;-0.444;2023-06-14T21:13:32;7.1;;;3.3;;
73315;SDS011;61545;53.726;-0.444;2023-06-14T21:18:32;9.1;;;2.9;;
73315;SDS011;61545;53.726;-0.444;2023-06-14T21:23:32;8.4;;;3.5;;
73315;SDS011;61545;53.726;-0.444;2023-06-14T21:28:32;8.4;;;3.5;;
73315;SDS011;61545;53.726;-0.444;2023-06-14T21:33:32;7.7;;;3.3;;
73315;SDS011;61545;53.726;-0.444;2023-06-14T21:38:32;9.2;;;2.9;;
73315;SDS011;61545;53.726;-0.444;2023-06-14T21:43:32;6.7;;;2.8;;
73315;SDS011;61545;53.726;-0.444;2023-06-14T21:48:32;8.0;;;3.7;;
73315;SDS011;61545;53.726;-0.444;2023-06-14T21:53:32;10.2;;;3.4;;
73315;SDS011;61545;53.726;-0.444;2023-06-14T21:58:32;10.2;;;3.4;;
73315;SDS011;61545;53.726;-0.444;2023-06-14T22:03:32;11.2;;;3.5;;
73315;SDS011;61545;53.726;-0.444;2023-06-14T22:08:32;6.7;;;2.8;;
73315;SDS011;61545;53.726;-0.444;2023-06-14T22:13:33;6.9;;;2.9;;
73315;SDS011;61545;53.726;-0.444;2023-06-14T22:18:32;11.0;;;3.4;;
73315;SDS011;61545;53.726;-0.444;2023-06-14T22:23:32;9.5;;;4.2;;
73315;SDS011;61545;53.726;-0.444;2023-06-14T22:28:32;9.5;;;4.2;;
73315;SDS011;61545;53.726;-0.444;2023-06-14T22:33:32;8.2;;;4.2;;
73315;SDS011;61545;53.726;-0.444;2023-06-14T22:38:32;14.7;;;5;;
73315;SDS011;61545;53.726;-0.444;2023-06-14T22:43:32;12.7;;;5.2;;
73315;SDS011;61545;53.726;-0.444;2023-06-14T22:48:33;14.5;;;6.5;;
73315;SDS011;61545;53.726;-0.444;2023-06-14T22:53:32;12.8;;;6.1;;
73315;SDS011;61545;53.726;-0.444;2023-06-14T22:58:32;12.8;;;6.1;;
73315;SDS011;61545;53.726;-0.444;2023-06-14T23:03:32;9.4;;;5.3;;
73315;SDS011;61545;53.726;-0.444;2023-06-14T23:08:32;12.1;;;6.3;;
73315;SDS011;61545;53.726;-0.444;2023-06-14T23:13:32;15.5;;;6.6;;
73315;SDS011;61545;53.726;-0.444;2023-06-14T23:18:32;11.9;;;6.1;;
73315;SDS011;61545;53.726;-0.444;2023-06-14T23:23:32;13.0;;;6.9;;
73315;SDS011;61545;53.726;-0.444;2023-06-14T23:28:32;13.0;;;6.9;;
73315;SDS011;61545;53.726;-0.444;2023-06-14T23:33:32;9.4;;;5.5;;
73315;SDS011;61545;53.726;-0.444;2023-06-14T23:38:33;14.4;;;6.6;;
73315;SDS011;61545;53.726;-0.444;2023-06-14T23:43:32;17.1;;;6.6;;
73315;SDS011;61545;53.726;-0.444;2023-06-14T23:48:32;13.4;;;6.1;;
73315;SDS011;61545;53.726;-0.444;2023-06-14T23:53:32;12.6;;;6.4;;
73315;SDS011;61545;53.726;-0.444;2023-06-14T23:58:32;12.6;;;6.4;;
